createdAt,value
2018-05-11T00:02:52.037Z,101653.69
2018-05-11T00:05:55.353Z,101656.11
2018-05-11T00:08:59.445Z,101647.13
2018-05-11T00:12:02.749Z,101649.96
2018-05-11T00:15:06.841Z,101647.03
2018-05-11T00:18:10.144Z,101651.33
2018-05-11T00:21:13.470Z,101671.47
2018-05-11T00:24:17.570Z,101673.35
2018-05-11T00:27:20.877Z,101664.66
2018-05-11T00:30:24.966Z,101671.36
2018-05-11T00:33:28.294Z,101666.34
2018-05-11T00:36:32.393Z,101669.50
2018-05-11T00:39:36.490Z,101665.62
2018-05-11T00:42:39.806Z,101671.50
2018-05-11T00:45:43.145Z,101664.27
2018-05-11T00:48:46.454Z,101662.30
2018-05-11T00:51:49.778Z,101669.30
2018-05-11T00:54:53.093Z,101664.48
2018-05-11T00:57:56.417Z,101667.53
2018-05-11T01:00:59.740Z,101667.94
2018-05-11T01:04:03.047Z,101681.25
2018-05-11T01:07:06.370Z,101682.92
2018-05-11T01:10:09.728Z,101671.93
2018-05-11T01:13:13.032Z,101676.02
2018-05-11T01:16:16.404Z,101686.08
2018-05-11T01:19:19.693Z,101681.89
2018-05-11T01:22:23.018Z,101680.20
2018-05-11T01:25:26.317Z,101689.66
2018-05-11T01:28:29.638Z,101681.91
2018-05-11T01:31:32.937Z,101695.53
2018-05-11T01:34:36.258Z,101692.17
2018-05-11T01:37:40.349Z,101692.30
2018-05-11T01:40:43.674Z,101694.90
2018-05-11T01:43:47.765Z,101695.11
2018-05-11T01:46:51.080Z,101701.93
2018-05-11T01:49:55.166Z,101703.92
2018-05-11T01:52:58.494Z,101714.31
2018-05-11T01:56:02.571Z,101720.28
2018-05-11T01:59:05.897Z,101720.80
2018-05-11T02:02:09.196Z,101727.61
2018-05-11T02:05:13.293Z,101733.70
2018-05-11T02:08:16.617Z,101740.00
2018-05-11T02:11:20.702Z,101742.73
2018-05-11T02:14:28.063Z,101745.75
2018-05-11T02:17:31.597Z,101745.96
2018-05-11T02:20:36.383Z,101749.84
2018-05-11T02:23:40.801Z,101747.45
2018-05-11T02:26:44.300Z,101746.81
2018-05-11T02:29:47.704Z,101744.72
2018-05-11T02:32:51.129Z,101757.59
2018-05-11T02:35:54.608Z,101759.50
2018-05-11T02:38:58.128Z,101752.87
2018-05-11T02:42:02.567Z,101761.47
2018-05-11T02:45:06.200Z,101757.17
2018-05-11T02:48:09.595Z,101767.34
2018-05-11T02:51:13.697Z,101764.63
2018-05-11T02:54:17.002Z,101759.08
2018-05-11T02:57:21.085Z,101765.98
2018-05-11T03:00:24.411Z,101774.38
2018-05-11T03:03:27.718Z,101778.38
2018-05-11T03:06:31.821Z,101787.36
2018-05-11T03:09:35.142Z,101788.64
2018-05-11T03:12:38.499Z,101797.45
2018-05-11T03:15:41.806Z,101797.45
2018-05-11T03:18:45.253Z,101799.84
2018-05-11T03:21:48.485Z,101807.08
2018-05-11T03:24:51.793Z,101807.20
2018-05-11T03:27:55.113Z,101814.02
2018-05-11T03:30:59.186Z,101815.69
2018-05-11T03:34:02.509Z,101817.77
2018-05-11T03:37:05.825Z,101821.34
2018-05-11T03:40:09.157Z,101822.80
2018-05-11T03:43:12.508Z,101823.44
2018-05-11T03:46:16.578Z,101827.22
2018-05-11T03:49:19.917Z,101832.67
2018-05-11T03:52:23.989Z,101836.34
2018-05-11T03:55:27.314Z,101844.73
2018-05-11T03:58:30.626Z,101848.19
2018-05-11T04:01:52.362Z,101854.58
2018-05-11T04:05:14.080Z,101858.66
2018-05-11T04:08:36.016Z,101864.84
2018-05-11T04:11:40.112Z,101872.62
2018-05-11T04:14:43.437Z,101873.66
2018-05-11T04:17:47.518Z,101871.14
2018-05-11T04:20:50.919Z,101870.84
2018-05-11T04:23:54.164Z,101876.91
2018-05-11T04:26:57.493Z,101873.97
2018-05-11T04:30:00.801Z,101877.45
2018-05-11T04:33:04.157Z,101884.45
2018-05-11T04:36:07.467Z,101892.66
2018-05-11T04:39:10.786Z,101888.23
2018-05-11T04:42:14.109Z,101888.23
2018-05-11T04:45:17.434Z,101890.45
2018-05-11T04:48:20.750Z,101894.75
2018-05-11T04:51:24.073Z,101887.72
2018-05-11T04:54:27.392Z,101893.99
2018-05-11T04:57:30.697Z,101900.41
2018-05-11T05:00:34.785Z,101901.35
2018-05-11T05:03:38.121Z,101898.91
2018-05-11T05:06:42.215Z,101904.27
2018-05-11T05:09:45.606Z,101906.23
2018-05-11T05:12:48.909Z,101904.23
2018-05-11T05:15:52.229Z,101906.78
2018-05-11T05:18:55.553Z,101915.98
2018-05-11T05:21:58.877Z,101914.41
2018-05-11T05:25:02.185Z,101921.45
2018-05-11T05:28:05.519Z,101922.50
2018-05-11T05:31:08.865Z,101913.48
2018-05-11T05:34:12.161Z,101922.53
2018-05-11T05:37:15.480Z,101917.09
2018-05-11T05:40:18.785Z,101919.61
2018-05-11T05:43:22.873Z,101926.19
2018-05-11T05:46:26.181Z,101925.68
2018-05-11T05:49:29.497Z,101925.59
2018-05-11T05:52:33.569Z,101933.02
2018-05-11T05:55:36.887Z,101941.63
2018-05-11T05:58:40.220Z,101938.78
2018-05-11T06:01:43.527Z,101942.45
2018-05-11T06:04:46.850Z,101939.45
2018-05-11T06:07:50.149Z,101938.09
2018-05-11T06:10:53.559Z,101942.57
2018-05-11T06:13:56.821Z,101948.03
2018-05-11T06:17:00.149Z,101950.66
2018-05-11T06:20:03.462Z,101949.08
2018-05-11T06:23:06.784Z,101959.02
2018-05-11T06:26:10.893Z,101952.49
2018-05-11T06:29:14.965Z,101962.47
2018-05-11T06:32:18.290Z,101966.99
2018-05-11T06:35:21.593Z,101953.55
2018-05-11T06:38:25.681Z,101961.73
2018-05-11T06:41:28.985Z,101966.33
2018-05-11T06:44:32.309Z,101960.86
2018-05-11T06:47:36.419Z,101963.14
2018-05-11T06:50:40.485Z,101958.27
2018-05-11T06:53:43.801Z,101952.59
2018-05-11T06:56:47.100Z,101954.28
2018-05-11T06:59:50.425Z,101947.95
2018-05-11T07:02:54.501Z,101947.17
2018-05-11T07:05:57.821Z,101949.88
2018-05-11T07:09:01.126Z,101947.85
2018-05-11T07:12:05.209Z,101952.00
2018-05-11T07:15:08.541Z,101943.20
2018-05-11T07:18:12.633Z,101954.30
2018-05-11T07:21:15.966Z,101947.22
2018-05-11T07:24:19.275Z,101956.98
2018-05-11T07:27:22.597Z,101954.69
2018-05-11T07:30:25.900Z,101956.91
2018-05-11T07:33:29.229Z,101954.84
2018-05-11T07:36:32.529Z,101952.66
2018-05-11T07:39:35.885Z,101949.96
2018-05-11T07:42:39.183Z,101949.14
2018-05-11T07:45:42.502Z,101947.95
2018-05-11T07:48:45.806Z,101945.91
2018-05-11T07:51:49.133Z,101952.01
2018-05-11T07:54:53.218Z,101948.27
2018-05-11T07:57:56.516Z,101942.30
2018-05-11T08:00:59.838Z,101942.70
2018-05-11T08:04:03.986Z,101939.83
2018-05-11T08:07:07.235Z,101935.39
2018-05-11T08:10:11.325Z,101932.79
2018-05-11T08:13:14.625Z,101934.19
2018-05-11T08:16:17.949Z,101929.97
2018-05-11T08:19:22.021Z,101932.30
2018-05-11T08:22:25.344Z,101926.86
2018-05-11T08:25:28.649Z,101924.77
2018-05-11T08:28:32.729Z,101928.32
2018-05-11T08:31:36.049Z,101926.92
2018-05-11T08:34:39.348Z,101926.55
2018-05-11T08:37:42.670Z,101926.00
2018-05-11T08:40:46.790Z,101922.92
2018-05-11T08:43:50.118Z,101921.70
2018-05-11T08:46:53.426Z,101931.53
2018-05-11T08:49:56.765Z,101925.82
2018-05-11T08:53:00.828Z,101923.81
2018-05-11T08:56:04.149Z,101920.12
2018-05-11T08:59:07.455Z,101921.34
2018-05-11T09:02:10.778Z,101924.50
2018-05-11T09:05:14.869Z,101918.37
2018-05-11T09:08:18.262Z,101913.94
2018-05-11T09:11:21.516Z,101911.13
2018-05-11T09:14:24.813Z,101913.47
2018-05-11T09:17:28.136Z,101914.13
2018-05-11T09:20:31.441Z,101917.17
2018-05-11T09:23:34.764Z,101919.56
2018-05-11T09:26:38.837Z,101926.13
2018-05-11T09:29:42.157Z,101920.34
2018-05-11T09:32:45.481Z,101923.67
2018-05-11T09:35:48.805Z,101922.02
2018-05-11T09:38:52.117Z,101928.40
2018-05-11T09:41:55.437Z,101922.67
2018-05-11T09:44:58.761Z,101924.82
2018-05-11T09:48:02.832Z,101934.34
2018-05-11T09:51:06.155Z,101928.47
2018-05-11T09:54:09.485Z,101918.55
2018-05-11T09:57:12.813Z,101922.50
2018-05-11T10:00:30.745Z,101921.45
2018-05-11T10:03:34.053Z,101925.58
2018-05-11T10:06:37.377Z,101926.81
2018-05-11T10:09:40.686Z,101935.80
2018-05-11T10:12:44.781Z,101939.95
2018-05-11T10:15:48.085Z,101926.97
2018-05-11T10:18:51.405Z,101932.58
2018-05-11T10:21:55.489Z,101930.50
2018-05-11T10:24:58.818Z,101929.81
2018-05-11T10:28:02.909Z,101936.56
2018-05-11T10:31:06.222Z,101934.11
2018-05-11T10:34:10.328Z,101930.31
2018-05-11T10:37:14.404Z,101934.08
2018-05-11T10:40:17.724Z,101929.04
2018-05-11T10:43:21.050Z,101926.38
2018-05-11T10:46:24.378Z,101940.34
2018-05-11T10:49:27.708Z,101939.06
2018-05-11T10:52:31.008Z,101945.73
2018-05-11T10:55:34.329Z,101937.41
2018-05-11T10:58:38.397Z,101932.34
2018-05-11T11:01:41.712Z,101934.77
2018-05-11T11:04:45.017Z,101938.97
2018-05-11T11:07:48.336Z,101934.92
2018-05-11T11:10:52.406Z,101937.06
2018-05-11T11:13:55.736Z,101938.19
2018-05-11T11:16:59.041Z,101935.95
2018-05-11T11:20:03.221Z,101936.86
2018-05-11T11:23:06.460Z,101939.30
2018-05-11T11:26:10.529Z,101945.36
2018-05-11T11:29:13.841Z,101943.86
2018-05-11T11:32:17.145Z,101945.11
2018-05-11T11:35:20.487Z,101935.38
2018-05-11T11:38:23.793Z,101937.38
2018-05-11T11:41:27.113Z,101928.52
2018-05-11T11:44:30.414Z,101935.75
2018-05-11T11:47:33.831Z,101926.70
2018-05-11T11:50:37.068Z,101930.19
2018-05-11T11:53:40.393Z,101929.59
2018-05-11T11:56:43.693Z,101924.37
2018-05-11T11:59:47.013Z,101924.94
2018-05-11T12:02:50.309Z,101925.78
2018-05-11T12:05:53.633Z,101920.83
2018-05-11T12:08:57.005Z,101916.34
2018-05-11T12:12:00.268Z,101914.38
2018-05-11T12:15:03.567Z,101908.83
2018-05-11T12:18:06.893Z,101905.93
2018-05-11T12:21:10.193Z,101909.19
2018-05-11T12:24:13.513Z,101913.77
2018-05-11T12:27:16.816Z,101916.84
2018-05-11T12:30:20.133Z,101920.19
2018-05-11T12:33:23.453Z,101922.38
2018-05-11T12:36:26.773Z,101921.82
2018-05-11T12:39:30.069Z,101919.81
2018-05-11T12:42:33.393Z,101915.74
2018-05-11T12:45:36.708Z,101919.06
2018-05-11T12:48:40.007Z,101916.98
2018-05-11T12:51:43.329Z,101923.38
2018-05-11T12:54:46.629Z,101918.41
2018-05-11T12:57:49.941Z,101925.34
2018-05-11T13:00:53.268Z,101919.73
2018-05-11T13:03:56.588Z,101921.73
2018-05-11T13:06:59.890Z,101912.34
2018-05-11T13:10:03.208Z,101908.72
2018-05-11T13:13:06.517Z,101901.56
2018-05-11T13:16:09.837Z,101895.64
2018-05-11T13:19:13.175Z,101892.93
2018-05-11T13:22:16.493Z,101896.82
2018-05-11T13:25:19.796Z,101894.31
2018-05-11T13:28:23.109Z,101886.35
2018-05-11T13:31:26.421Z,101883.26
2018-05-11T13:34:30.489Z,101880.13
2018-05-11T13:37:33.812Z,101889.09
2018-05-11T13:40:37.109Z,101883.84
2018-05-11T13:43:40.425Z,101887.04
2018-05-11T13:46:44.545Z,101886.05
2018-05-11T13:49:48.621Z,101889.03
2018-05-11T13:52:51.959Z,101888.19
2018-05-11T13:55:55.260Z,101882.06
2018-05-11T13:58:58.586Z,101880.52
2018-05-11T14:02:01.881Z,101890.58
2018-05-11T14:05:05.202Z,101886.40
2018-05-11T14:08:08.501Z,101886.17
2018-05-11T14:11:11.850Z,101879.28
2018-05-11T14:14:15.153Z,101877.87
2018-05-11T14:17:18.480Z,101879.65
2018-05-11T14:20:21.808Z,101882.94
2018-05-11T14:23:25.133Z,101877.50
2018-05-11T14:26:28.463Z,101879.77
2018-05-11T14:29:31.761Z,101877.66
2018-05-11T14:32:35.078Z,101866.44
2018-05-11T14:35:38.383Z,101862.31
2018-05-11T14:38:41.744Z,101866.78
2018-05-11T14:41:45.046Z,101869.61
2018-05-11T14:44:48.357Z,101861.41
2018-05-11T14:47:51.657Z,101860.33
2018-05-11T14:50:54.981Z,101858.75
2018-05-11T14:53:59.112Z,101861.52
2018-05-11T14:57:02.383Z,101867.55
2018-05-11T15:00:05.702Z,101860.73
2018-05-11T15:03:09.780Z,101860.32
2018-05-11T15:06:13.097Z,101852.22
2018-05-11T15:09:17.214Z,101846.21
2018-05-11T15:12:21.277Z,101850.94
2018-05-11T15:15:24.680Z,101852.17
2018-05-11T15:18:27.910Z,101847.05
2018-05-11T15:21:31.228Z,101858.57
2018-05-11T15:24:35.313Z,101854.13
2018-05-11T15:27:38.634Z,101850.13
2018-05-11T15:30:42.706Z,101848.06
2018-05-11T15:33:46.029Z,101847.97
2018-05-11T15:36:49.333Z,101848.69
2018-05-11T15:39:53.429Z,101847.02
2018-05-11T15:42:56.737Z,101843.13
2018-05-11T15:46:00.062Z,101837.59
2018-05-11T15:49:03.386Z,101839.11
2018-05-11T15:52:06.729Z,101839.12
2018-05-11T15:55:10.033Z,101834.70
2018-05-11T15:58:14.122Z,101828.58
2018-05-11T16:01:17.429Z,101828.72
2018-05-11T16:04:20.746Z,101820.69
2018-05-11T16:07:24.819Z,101823.70
2018-05-11T16:10:28.137Z,101816.59
2018-05-11T16:13:31.462Z,101821.55
2018-05-11T16:16:35.529Z,101820.42
2018-05-11T16:19:38.852Z,101813.77
2018-05-11T16:22:42.934Z,101818.12
2018-05-11T16:25:46.258Z,101813.80
2018-05-11T16:28:49.553Z,101811.04
2018-05-11T16:31:52.878Z,101814.77
2018-05-11T16:34:56.183Z,101813.66
2018-05-11T16:37:59.497Z,101805.34
2018-05-11T16:41:02.825Z,101810.20
2018-05-11T16:44:06.138Z,101809.52
2018-05-11T16:47:09.468Z,101811.64
2018-05-11T16:50:12.767Z,101807.75
2018-05-11T16:53:16.093Z,101810.77
2018-05-11T16:56:19.397Z,101810.67
2018-05-11T16:59:22.725Z,101811.22
2018-05-11T17:02:26.025Z,101808.72
2018-05-11T17:05:30.118Z,101800.55
2018-05-11T17:08:33.426Z,101808.48
2018-05-11T17:11:36.754Z,101807.77
2018-05-11T17:14:40.062Z,101808.46
2018-05-11T17:17:43.385Z,101805.23
2018-05-11T17:20:46.727Z,101806.39
2018-05-11T17:23:50.793Z,101805.82
2018-05-11T17:26:54.113Z,101808.27
2018-05-11T17:29:57.453Z,101809.95
2018-05-11T17:33:00.769Z,101808.35
2018-05-11T17:36:04.091Z,101804.94
2018-05-11T17:39:07.418Z,101809.77
2018-05-11T17:42:10.745Z,101811.18
2018-05-11T17:45:14.069Z,101810.90
2018-05-11T17:48:17.380Z,101818.33
2018-05-11T17:51:20.700Z,101820.22
2018-05-11T17:54:24.023Z,101815.29
2018-05-11T17:57:28.099Z,101815.17
2018-05-11T18:00:31.426Z,101822.85
2018-05-11T18:03:35.509Z,101825.84
2018-05-11T18:06:38.822Z,101828.32
2018-05-11T18:09:42.151Z,101815.07
2018-05-11T18:12:45.469Z,101819.38
2018-05-11T18:15:48.798Z,101815.69
2018-05-11T18:18:52.108Z,101816.84
2018-05-11T18:21:55.432Z,101821.95
2018-05-11T18:24:58.746Z,101816.00
2018-05-11T18:28:02.060Z,101817.73
2018-05-11T18:31:05.413Z,101816.70
2018-05-11T18:34:09.480Z,101813.86
2018-05-11T18:37:12.786Z,101809.39
2018-05-11T18:40:16.121Z,101818.87
2018-05-11T18:43:20.215Z,101815.09
2018-05-11T18:46:24.392Z,101815.43
2018-05-11T18:49:27.621Z,101818.93
2018-05-11T18:52:30.949Z,101816.94
2018-05-11T18:55:35.023Z,101824.22
2018-05-11T18:58:38.360Z,101818.53
2018-05-11T19:01:41.748Z,101826.23
2018-05-11T19:04:45.018Z,101821.83
2018-05-11T19:07:48.321Z,101833.69
2018-05-11T19:10:51.645Z,101837.06
2018-05-11T19:13:54.969Z,101841.48
2018-05-11T19:16:58.297Z,101846.23
2018-05-11T19:20:01.612Z,101848.52
2018-05-11T19:23:04.974Z,101847.06
2018-05-11T19:26:08.316Z,101853.13
2018-05-11T19:29:11.597Z,101856.76
2018-05-11T19:32:14.922Z,101861.27
2018-05-11T19:35:19.064Z,101861.75
2018-05-11T19:38:22.331Z,101863.38
2018-05-11T19:41:26.405Z,101868.30
2018-05-11T19:44:29.737Z,101864.97
2018-05-11T19:47:33.819Z,101869.86
2018-05-11T19:50:37.149Z,101868.33
2018-05-11T19:53:41.244Z,101872.59
2018-05-11T19:56:44.548Z,101883.37
2018-05-11T19:59:48.650Z,101882.34
2018-05-11T20:02:51.965Z,101882.47
2018-05-11T20:05:56.055Z,101884.65
2018-05-11T20:08:59.357Z,101888.17
2018-05-11T20:12:02.685Z,101883.35
2018-05-11T20:15:06.759Z,101883.63
2018-05-11T20:18:10.092Z,101879.37
2018-05-11T20:21:14.198Z,101873.98
2018-05-11T20:24:18.273Z,101877.87
2018-05-11T20:27:21.601Z,101880.66
2018-05-11T20:30:25.689Z,101884.87
2018-05-11T20:33:29.017Z,101889.30
2018-05-11T20:36:33.094Z,101886.16
2018-05-11T20:39:36.419Z,101891.70
2018-05-11T20:42:39.733Z,101891.52
2018-05-11T20:45:43.829Z,101890.04
2018-05-11T20:48:47.133Z,101883.55
2018-05-11T20:51:51.229Z,101887.98
2018-05-11T20:54:54.542Z,101892.45
2018-05-11T20:57:57.853Z,101893.42
2018-05-11T21:01:01.959Z,101883.80
2018-05-11T21:04:06.029Z,101887.91
2018-05-11T21:07:09.346Z,101892.25
2018-05-11T21:10:12.656Z,101891.54
2018-05-11T21:13:15.990Z,101886.73
2018-05-11T21:16:19.317Z,101879.61
2018-05-11T21:19:22.627Z,101895.37
2018-05-11T21:22:25.966Z,101896.73
2018-05-11T21:25:30.033Z,101899.81
2018-05-11T21:28:33.357Z,101890.70
2018-05-11T21:31:36.669Z,101891.55
2018-05-11T21:34:40.757Z,101886.95
2018-05-11T21:37:44.086Z,101892.84
2018-05-11T21:40:48.256Z,101899.76
2018-05-11T21:43:51.497Z,101893.88
2018-05-11T21:46:55.585Z,101901.73
2018-05-11T21:49:58.892Z,101893.03
2018-05-11T21:53:02.981Z,101892.73
2018-05-11T21:56:06.312Z,101896.31
2018-05-11T21:59:10.384Z,101890.86
2018-05-11T22:02:13.710Z,101891.28
2018-05-11T22:05:17.018Z,101884.25
2018-05-11T22:08:21.114Z,101887.41
2018-05-11T22:11:24.417Z,101889.59
2018-05-11T22:14:27.740Z,101894.19
2018-05-11T22:17:31.061Z,101894.19
2018-05-11T22:20:34.365Z,101895.89
2018-05-11T22:23:37.693Z,101896.49
2018-05-11T22:26:41.009Z,101887.36
2018-05-11T22:29:45.101Z,101891.33
2018-05-11T22:32:48.420Z,101886.03
2018-05-11T22:35:52.511Z,101886.88
2018-05-11T22:38:55.844Z,101896.09
2018-05-11T22:41:59.938Z,101895.88
2018-05-11T22:45:03.253Z,101895.03
2018-05-11T22:48:06.577Z,101889.58
2018-05-11T22:51:09.897Z,101892.73
2018-05-11T22:54:13.209Z,101890.09
2018-05-11T22:57:16.541Z,101898.28
2018-05-11T23:03:54.237Z,101883.30
2018-05-11T23:06:57.556Z,101882.75
2018-05-11T23:10:01.703Z,101879.30
2018-05-11T23:13:04.965Z,101877.72
2018-05-11T23:16:09.041Z,101869.22
2018-05-11T23:19:12.370Z,101868.36
2018-05-11T23:22:16.465Z,101867.20
2018-05-11T23:25:19.769Z,101863.62
2018-05-11T23:28:23.094Z,101856.14
2018-05-11T23:31:26.405Z,101850.39
2018-05-11T23:34:29.721Z,101856.00
2018-05-11T23:37:33.038Z,101860.84
2018-05-11T23:40:36.388Z,101855.69
2018-05-11T23:43:39.702Z,101856.13
2018-05-11T23:46:43.025Z,101848.45
2018-05-11T23:49:46.339Z,101847.30
2018-05-11T23:52:49.685Z,101848.80
2018-05-11T23:55:53.000Z,101847.75
2018-05-11T23:58:56.301Z,101841.05
